Wanilla, Mississippi
Current Conditions -  °F | °C
As of 8:35 AM on Tuesday 27 Jan 2015 (Local Time) from K1R7 Reporting Station
Clear Clear  
Wind Chill: 11°   Ceiling: Unl
Heat Index: 11°   Visibility: NA
Dew Point:   Wind: 5mph
Humidity: 62%   Direction: 310°NW
Pressure: 30.12"   Gusts: NA
Location:  31.4742°N, 90.119°W
Report Text: K1R7 271435Z AUTO 31004KT CLR 11/04 A3012 RMK AO2
Loading
Personal Weather Stations






























Interactive Weather Map New forecast layout! Learn more

10-Day Weather Forecast

Advertisements
Track Severe Weather on mobile